sensor_id;sensor_type;location;lat;lon;timestamp;P1;durP1;ratioP1;P2;durP2;ratioP2
44838;SDS011;30576;42.098;24.876;2022-09-09T00:01:43;11.27;;;7.13;;
44838;SDS011;30576;42.098;24.876;2022-09-09T00:04:27;12.73;;;7.88;;
44838;SDS011;30576;42.098;24.876;2022-09-09T00:15:32;9.18;;;6.18;;
44838;SDS011;30576;42.098;24.876;2022-09-09T00:20:58;10.70;;;7.55;;
44838;SDS011;30576;42.098;24.876;2022-09-09T00:23:32;10.30;;;6.88;;
44838;SDS011;30576;42.098;24.876;2022-09-09T00:28:52;8.13;;;6.82;;
44838;SDS011;30576;42.098;24.876;2022-09-09T00:31:26;9.90;;;6.82;;
44838;SDS011;30576;42.098;24.876;2022-09-09T00:33:55;8.75;;;6.32;;
44838;SDS011;30576;42.098;24.876;2022-09-09T00:36:27;8.70;;;6.38;;
44838;SDS011;30576;42.098;24.876;2022-09-09T00:38:56;8.52;;;6.35;;
44838;SDS011;30576;42.098;24.876;2022-09-09T00:44:32;8.23;;;5.68;;
44838;SDS011;30576;42.098;24.876;2022-09-09T00:53:02;9.85;;;5.75;;
44838;SDS011;30576;42.098;24.876;2022-09-09T00:55:39;8.27;;;6.30;;
44838;SDS011;30576;42.098;24.876;2022-09-09T01:00:46;9.48;;;5.72;;
44838;SDS011;30576;42.098;24.876;2022-09-09T01:06:13;7.57;;;6.03;;
44838;SDS011;30576;42.098;24.876;2022-09-09T01:11:20;11.85;;;7.18;;
44838;SDS011;30576;42.098;24.876;2022-09-09T01:14:54;8.02;;;6.22;;
44838;SDS011;30576;42.098;24.876;2022-09-09T01:17:03;8.27;;;6.07;;
44838;SDS011;30576;42.098;24.876;2022-09-09T01:22:10;8.90;;;6.50;;
44838;SDS011;30576;42.098;24.876;2022-09-09T01:28:03;9.90;;;6.63;;
44838;SDS011;30576;42.098;24.876;2022-09-09T01:30:34;10.40;;;6.93;;
44838;SDS011;30576;42.098;24.876;2022-09-09T01:33:01;13.27;;;6.28;;
44838;SDS011;30576;42.098;24.876;2022-09-09T01:35:31;13.00;;;6.65;;
44838;SDS011;30576;42.098;24.876;2022-09-09T01:38:04;10.05;;;6.90;;
44838;SDS011;30576;42.098;24.876;2022-09-09T01:40:30;10.77;;;6.65;;
44838;SDS011;30576;42.098;24.876;2022-09-09T01:42:57;7.90;;;6.32;;
44838;SDS011;30576;42.098;24.876;2022-09-09T01:45:23;9.38;;;6.38;;
44838;SDS011;30576;42.098;24.876;2022-09-09T01:47:49;9.32;;;6.05;;
44838;SDS011;30576;42.098;24.876;2022-09-09T01:50:17;7.93;;;5.45;;
44838;SDS011;30576;42.098;24.876;2022-09-09T01:52:43;7.07;;;5.13;;
44838;SDS011;30576;42.098;24.876;2022-09-09T01:55:14;9.60;;;5.43;;
44838;SDS011;30576;42.098;24.876;2022-09-09T02:00:17;7.57;;;4.97;;
44838;SDS011;30576;42.098;24.876;2022-09-09T02:05:21;8.48;;;5.43;;
44838;SDS011;30576;42.098;24.876;2022-09-09T02:07:51;9.02;;;5.15;;
44838;SDS011;30576;42.098;24.876;2022-09-09T02:10:30;6.90;;;5.22;;
44838;SDS011;30576;42.098;24.876;2022-09-09T02:13:11;8.68;;;5.25;;
44838;SDS011;30576;42.098;24.876;2022-09-09T02:21:09;10.05;;;4.22;;
44838;SDS011;30576;42.098;24.876;2022-09-09T02:23:37;7.32;;;5.18;;
44838;SDS011;30576;42.098;24.876;2022-09-09T02:26:04;7.85;;;5.10;;
44838;SDS011;30576;42.098;24.876;2022-09-09T02:28:32;7.70;;;5.07;;
44838;SDS011;30576;42.098;24.876;2022-09-09T02:31:00;11.15;;;5.97;;
44838;SDS011;30576;42.098;24.876;2022-09-09T02:33:27;7.75;;;5.32;;
44838;SDS011;30576;42.098;24.876;2022-09-09T02:35:59;9.15;;;6.07;;
44838;SDS011;30576;42.098;24.876;2022-09-09T02:38:29;7.50;;;5.75;;
44838;SDS011;30576;42.098;24.876;2022-09-09T02:41:00;8.25;;;5.68;;
44838;SDS011;30576;42.098;24.876;2022-09-09T02:43:30;7.10;;;5.65;;
44838;SDS011;30576;42.098;24.876;2022-09-09T02:51:51;8.75;;;4.72;;
44838;SDS011;30576;42.098;24.876;2022-09-09T02:54:29;7.43;;;5.82;;
44838;SDS011;30576;42.098;24.876;2022-09-09T02:57:06;6.32;;;4.80;;
44838;SDS011;30576;42.098;24.876;2022-09-09T02:59:35;9.30;;;5.47;;
44838;SDS011;30576;42.098;24.876;2022-09-09T03:02:01;10.55;;;5.80;;
44838;SDS011;30576;42.098;24.876;2022-09-09T03:04:27;8.48;;;5.30;;
44838;SDS011;30576;42.098;24.876;2022-09-09T03:06:53;8.52;;;5.30;;
44838;SDS011;30576;42.098;24.876;2022-09-09T03:09:18;7.72;;;5.30;;
44838;SDS011;30576;42.098;24.876;2022-09-09T03:11:44;8.00;;;5.53;;
44838;SDS011;30576;42.098;24.876;2022-09-09T03:14:09;7.55;;;5.50;;
44838;SDS011;30576;42.098;24.876;2022-09-09T03:16:36;7.95;;;4.78;;
44838;SDS011;30576;42.098;24.876;2022-09-09T03:19:04;9.25;;;5.03;;
44838;SDS011;30576;42.098;24.876;2022-09-09T03:21:29;9.85;;;6.00;;
44838;SDS011;30576;42.098;24.876;2022-09-09T03:23:55;9.27;;;5.65;;
44838;SDS011;30576;42.098;24.876;2022-09-09T03:26:20;6.75;;;4.88;;
44838;SDS011;30576;42.098;24.876;2022-09-09T03:28:46;7.57;;;4.97;;
44838;SDS011;30576;42.098;24.876;2022-09-09T03:31:11;8.23;;;5.55;;
44838;SDS011;30576;42.098;24.876;2022-09-09T03:33:37;14.27;;;5.57;;
44838;SDS011;30576;42.098;24.876;2022-09-09T03:36:03;10.75;;;6.70;;
44838;SDS011;30576;42.098;24.876;2022-09-09T03:38:29;8.40;;;6.57;;
44838;SDS011;30576;42.098;24.876;2022-09-09T03:40:55;7.97;;;5.93;;
44838;SDS011;30576;42.098;24.876;2022-09-09T03:43:25;8.05;;;6.10;;
44838;SDS011;30576;42.098;24.876;2022-09-09T03:45:52;8.85;;;5.72;;
44838;SDS011;30576;42.098;24.876;2022-09-09T03:48:18;7.82;;;6.40;;
44838;SDS011;30576;42.098;24.876;2022-09-09T03:50:48;9.85;;;7.38;;
44838;SDS011;30576;42.098;24.876;2022-09-09T03:53:15;16.85;;;6.63;;
44838;SDS011;30576;42.098;24.876;2022-09-09T03:55:45;10.68;;;6.85;;
44838;SDS011;30576;42.098;24.876;2022-09-09T03:58:13;13.48;;;8.57;;
44838;SDS011;30576;42.098;24.876;2022-09-09T04:00:39;15.65;;;8.73;;
44838;SDS011;30576;42.098;24.876;2022-09-09T04:03:10;13.50;;;8.02;;
44838;SDS011;30576;42.098;24.876;2022-09-09T04:05:36;14.90;;;7.75;;
44838;SDS011;30576;42.098;24.876;2022-09-09T04:08:08;12.50;;;8.55;;
44838;SDS011;30576;42.098;24.876;2022-09-09T04:10:34;15.23;;;8.70;;
44838;SDS011;30576;42.098;24.876;2022-09-09T04:13:02;13.40;;;8.32;;
44838;SDS011;30576;42.098;24.876;2022-09-09T04:15:28;17.92;;;9.27;;
44838;SDS011;30576;42.098;24.876;2022-09-09T04:17:55;10.35;;;7.82;;
44838;SDS011;30576;42.098;24.876;2022-09-09T04:20:20;12.95;;;8.70;;
44838;SDS011;30576;42.098;24.876;2022-09-09T04:22:47;11.30;;;8.68;;
44838;SDS011;30576;42.098;24.876;2022-09-09T04:25:12;11.57;;;8.80;;
44838;SDS011;30576;42.098;24.876;2022-09-09T04:27:38;13.90;;;10.70;;
44838;SDS011;30576;42.098;24.876;2022-09-09T04:30:03;13.27;;;8.40;;
44838;SDS011;30576;42.098;24.876;2022-09-09T04:32:31;14.07;;;9.05;;
44838;SDS011;30576;42.098;24.876;2022-09-09T04:34:57;13.55;;;9.02;;
44838;SDS011;30576;42.098;24.876;2022-09-09T04:37:23;12.93;;;7.93;;
44838;SDS011;30576;42.098;24.876;2022-09-09T04:39:49;13.02;;;8.35;;
44838;SDS011;30576;42.098;24.876;2022-09-09T04:42:15;12.82;;;8.18;;
44838;SDS011;30576;42.098;24.876;2022-09-09T04:44:42;12.02;;;9.90;;
44838;SDS011;30576;42.098;24.876;2022-09-09T04:47:08;12.95;;;9.73;;
44838;SDS011;30576;42.098;24.876;2022-09-09T04:49:34;23.08;;;10.50;;
44838;SDS011;30576;42.098;24.876;2022-09-09T04:52:02;11.98;;;9.35;;
44838;SDS011;30576;42.098;24.876;2022-09-09T04:54:28;12.90;;;8.70;;
44838;SDS011;30576;42.098;24.876;2022-09-09T04:56:54;13.57;;;8.65;;
44838;SDS011;30576;42.098;24.876;2022-09-09T04:59:20;12.55;;;8.18;;
44838;SDS011;30576;42.098;24.876;2022-09-09T05:01:46;13.32;;;7.93;;
44838;SDS011;30576;42.098;24.876;2022-09-09T05:04:12;11.40;;;9.20;;
44838;SDS011;30576;42.098;24.876;2022-09-09T05:06:40;14.45;;;10.13;;
44838;SDS011;30576;42.098;24.876;2022-09-09T05:09:05;13.57;;;10.20;;
44838;SDS011;30576;42.098;24.876;2022-09-09T05:11:31;14.40;;;10.50;;
44838;SDS011;30576;42.098;24.876;2022-09-09T05:14:02;14.15;;;10.57;;
44838;SDS011;30576;42.098;24.876;2022-09-09T05:16:28;12.27;;;10.43;;
44838;SDS011;30576;42.098;24.876;2022-09-09T05:18:53;14.23;;;10.13;;
44838;SDS011;30576;42.098;24.876;2022-09-09T05:21:19;13.57;;;10.25;;
44838;SDS011;30576;42.098;24.876;2022-09-09T05:23:46;13.38;;;10.18;;
44838;SDS011;30576;42.098;24.876;2022-09-09T05:26:12;12.52;;;9.90;;
44838;SDS011;30576;42.098;24.876;2022-09-09T05:28:40;12.00;;;9.38;;
44838;SDS011;30576;42.098;24.876;2022-09-09T05:31:06;14.25;;;9.57;;
44838;SDS011;30576;42.098;24.876;2022-09-09T05:33:34;13.27;;;7.93;;
44838;SDS011;30576;42.098;24.876;2022-09-09T05:36:04;9.88;;;6.97;;
44838;SDS011;30576;42.098;24.876;2022-09-09T05:38:32;8.55;;;6.45;;
44838;SDS011;30576;42.098;24.876;2022-09-09T05:40:59;15.55;;;6.22;;
44838;SDS011;30576;42.098;24.876;2022-09-09T05:43:28;8.73;;;7.30;;
44838;SDS011;30576;42.098;24.876;2022-09-09T05:46:08;10.75;;;7.25;;
44838;SDS011;30576;42.098;24.876;2022-09-09T05:48:41;7.50;;;5.97;;
44838;SDS011;30576;42.098;24.876;2022-09-09T05:51:12;8.95;;;5.18;;
44838;SDS011;30576;42.098;24.876;2022-09-09T05:53:49;9.65;;;5.35;;
44838;SDS011;30576;42.098;24.876;2022-09-09T05:56:21;6.63;;;5.13;;
44838;SDS011;30576;42.098;24.876;2022-09-09T05:58:48;9.32;;;6.72;;
44838;SDS011;30576;42.098;24.876;2022-09-09T06:03:42;11.30;;;5.50;;
44838;SDS011;30576;42.098;24.876;2022-09-09T06:06:10;8.48;;;6.53;;
44838;SDS011;30576;42.098;24.876;2022-09-09T06:08:39;11.75;;;6.53;;
44838;SDS011;30576;42.098;24.876;2022-09-09T06:11:07;10.88;;;6.65;;
44838;SDS011;30576;42.098;24.876;2022-09-09T06:13:34;10.50;;;6.80;;
44838;SDS011;30576;42.098;24.876;2022-09-09T06:16:02;10.85;;;6.22;;
44838;SDS011;30576;42.098;24.876;2022-09-09T06:18:27;9.32;;;6.45;;
44838;SDS011;30576;42.098;24.876;2022-09-09T06:20:58;9.60;;;5.45;;
44838;SDS011;30576;42.098;24.876;2022-09-09T06:23:25;9.40;;;6.25;;
44838;SDS011;30576;42.098;24.876;2022-09-09T06:25:59;11.70;;;5.65;;
44838;SDS011;30576;42.098;24.876;2022-09-09T06:28:43;7.97;;;5.65;;
44838;SDS011;30576;42.098;24.876;2022-09-09T06:31:11;8.55;;;5.60;;
44838;SDS011;30576;42.098;24.876;2022-09-09T06:33:38;8.25;;;5.45;;
44838;SDS011;30576;42.098;24.876;2022-09-09T06:36:07;8.73;;;6.07;;
44838;SDS011;30576;42.098;24.876;2022-09-09T06:38:36;8.32;;;4.88;;
44838;SDS011;30576;42.098;24.876;2022-09-09T06:41:01;8.93;;;5.70;;
44838;SDS011;30576;42.098;24.876;2022-09-09T06:43:27;14.18;;;6.75;;
44838;SDS011;30576;42.098;24.876;2022-09-09T06:45:57;10.25;;;6.28;;
44838;SDS011;30576;42.098;24.876;2022-09-09T06:48:23;17.48;;;6.80;;
44838;SDS011;30576;42.098;24.876;2022-09-09T06:50:51;8.52;;;5.68;;
44838;SDS011;30576;42.098;24.876;2022-09-09T06:53:33;8.93;;;5.88;;
44838;SDS011;30576;42.098;24.876;2022-09-09T06:56:00;8.05;;;5.30;;
44838;SDS011;30576;42.098;24.876;2022-09-09T06:58:27;6.10;;;4.60;;
44838;SDS011;30576;42.098;24.876;2022-09-09T07:01:01;6.97;;;4.25;;
44838;SDS011;30576;42.098;24.876;2022-09-09T07:03:32;6.13;;;4.47;;
44838;SDS011;30576;42.098;24.876;2022-09-09T07:05:58;8.88;;;4.45;;
44838;SDS011;30576;42.098;24.876;2022-09-09T07:08:24;7.03;;;4.97;;
44838;SDS011;30576;42.098;24.876;2022-09-09T07:10:51;7.85;;;4.40;;
44838;SDS011;30576;42.098;24.876;2022-09-09T07:13:24;12.30;;;4.82;;
44838;SDS011;30576;42.098;24.876;2022-09-09T07:15:50;7.70;;;5.22;;
44838;SDS011;30576;42.098;24.876;2022-09-09T07:18:16;6.47;;;4.18;;
44838;SDS011;30576;42.098;24.876;2022-09-09T07:20:42;6.70;;;4.65;;
44838;SDS011;30576;42.098;24.876;2022-09-09T07:23:07;14.80;;;5.30;;
44838;SDS011;30576;42.098;24.876;2022-09-09T07:25:33;6.40;;;4.50;;
44838;SDS011;30576;42.098;24.876;2022-09-09T07:27:58;5.97;;;4.15;;
44838;SDS011;30576;42.098;24.876;2022-09-09T07:30:24;5.38;;;4.22;;
44838;SDS011;30576;42.098;24.876;2022-09-09T07:32:50;7.43;;;3.55;;
44838;SDS011;30576;42.098;24.876;2022-09-09T07:35:17;5.78;;;3.80;;
44838;SDS011;30576;42.098;24.876;2022-09-09T07:37:42;9.15;;;3.90;;
44838;SDS011;30576;42.098;24.876;2022-09-09T07:40:08;7.45;;;4.93;;
44838;SDS011;30576;42.098;24.876;2022-09-09T07:42:35;5.97;;;4.32;;
44838;SDS011;30576;42.098;24.876;2022-09-09T07:45:01;9.27;;;4.80;;
44838;SDS011;30576;42.098;24.876;2022-09-09T07:47:26;9.98;;;4.63;;
44838;SDS011;30576;42.098;24.876;2022-09-09T07:49:52;11.27;;;4.28;;
44838;SDS011;30576;42.098;24.876;2022-09-09T07:52:17;7.10;;;4.53;;
44838;SDS011;30576;42.098;24.876;2022-09-09T07:54:45;7.93;;;5.70;;
44838;SDS011;30576;42.098;24.876;2022-09-09T07:57:10;9.20;;;4.70;;
44838;SDS011;30576;42.098;24.876;2022-09-09T07:59:37;9.98;;;4.45;;
44838;SDS011;30576;42.098;24.876;2022-09-09T08:02:03;6.20;;;4.38;;
44838;SDS011;30576;42.098;24.876;2022-09-09T08:04:29;8.10;;;5.15;;
44838;SDS011;30576;42.098;24.876;2022-09-09T08:06:55;7.65;;;4.65;;
44838;SDS011;30576;42.098;24.876;2022-09-09T08:09:23;8.10;;;4.47;;
44838;SDS011;30576;42.098;24.876;2022-09-09T08:11:51;6.68;;;5.18;;
44838;SDS011;30576;42.098;24.876;2022-09-09T08:14:17;7.50;;;5.10;;
44838;SDS011;30576;42.098;24.876;2022-09-09T08:16:43;8.23;;;6.15;;
44838;SDS011;30576;42.098;24.876;2022-09-09T08:19:10;6.65;;;4.95;;
44838;SDS011;30576;42.098;24.876;2022-09-09T08:21:37;7.95;;;4.60;;
44838;SDS011;30576;42.098;24.876;2022-09-09T08:24:05;9.43;;;4.60;;
44838;SDS011;30576;42.098;24.876;2022-09-09T08:26:32;7.10;;;4.88;;
44838;SDS011;30576;42.098;24.876;2022-09-09T08:29:03;11.18;;;6.80;;
44838;SDS011;30576;42.098;24.876;2022-09-09T08:31:31;6.85;;;4.63;;
44838;SDS011;30576;42.098;24.876;2022-09-09T08:33:58;5.68;;;4.57;;
44838;SDS011;30576;42.098;24.876;2022-09-09T08:36:25;6.43;;;4.43;;
44838;SDS011;30576;42.098;24.876;2022-09-09T08:38:53;10.07;;;4.82;;
44838;SDS011;30576;42.098;24.876;2022-09-09T08:44:23;7.20;;;5.22;;
44838;SDS011;30576;42.098;24.876;2022-09-09T08:52:18;6.95;;;4.63;;
44838;SDS011;30576;42.098;24.876;2022-09-09T08:54:48;9.57;;;4.88;;
44838;SDS011;30576;42.098;24.876;2022-09-09T08:57:18;6.05;;;4.65;;
44838;SDS011;30576;42.098;24.876;2022-09-09T08:59:50;6.75;;;3.80;;
44838;SDS011;30576;42.098;24.876;2022-09-09T09:05:31;6.85;;;4.63;;
44838;SDS011;30576;42.098;24.876;2022-09-09T09:08:12;9.68;;;5.18;;
44838;SDS011;30576;42.098;24.876;2022-09-09T09:10:50;7.05;;;5.75;;
44838;SDS011;30576;42.098;24.876;2022-09-09T09:18:47;5.95;;;4.38;;
44838;SDS011;30576;42.098;24.876;2022-09-09T09:23:59;9.18;;;5.82;;
44838;SDS011;30576;42.098;24.876;2022-09-09T09:26:28;11.27;;;4.78;;
44838;SDS011;30576;42.098;24.876;2022-09-09T09:28:58;6.65;;;4.65;;
44838;SDS011;30576;42.098;24.876;2022-09-09T09:31:24;9.05;;;4.95;;
44838;SDS011;30576;42.098;24.876;2022-09-09T09:33:52;8.38;;;5.03;;
44838;SDS011;30576;42.098;24.876;2022-09-09T09:36:20;7.63;;;4.78;;
44838;SDS011;30576;42.098;24.876;2022-09-09T09:39:06;8.25;;;4.63;;
44838;SDS011;30576;42.098;24.876;2022-09-09T09:41:33;11.02;;;5.53;;
44838;SDS011;30576;42.098;24.876;2022-09-09T09:44:04;8.15;;;4.82;;
44838;SDS011;30576;42.098;24.876;2022-09-09T09:46:32;9.50;;;4.47;;
44838;SDS011;30576;42.098;24.876;2022-09-09T09:48:58;6.00;;;4.30;;
44838;SDS011;30576;42.098;24.876;2022-09-09T09:51:30;10.18;;;4.13;;
44838;SDS011;30576;42.098;24.876;2022-09-09T09:56:56;7.28;;;5.00;;
44838;SDS011;30576;42.098;24.876;2022-09-09T09:59:37;11.13;;;5.70;;
44838;SDS011;30576;42.098;24.876;2022-09-09T10:04:38;7.10;;;4.00;;
44838;SDS011;30576;42.098;24.876;2022-09-09T10:07:18;10.82;;;4.85;;
44838;SDS011;30576;42.098;24.876;2022-09-09T10:09:45;8.23;;;4.75;;
44838;SDS011;30576;42.098;24.876;2022-09-09T10:12:20;6.85;;;4.70;;
44838;SDS011;30576;42.098;24.876;2022-09-09T10:15:05;8.85;;;4.75;;
44838;SDS011;30576;42.098;24.876;2022-09-09T10:17:39;6.15;;;3.95;;
44838;SDS011;30576;42.098;24.876;2022-09-09T10:23:07;9.38;;;5.82;;
44838;SDS011;30576;42.098;24.876;2022-09-09T10:25:42;7.97;;;4.70;;
44838;SDS011;30576;42.098;24.876;2022-09-09T10:31:18;6.07;;;4.00;;
44838;SDS011;30576;42.098;24.876;2022-09-09T10:33:53;8.75;;;4.28;;
44838;SDS011;30576;42.098;24.876;2022-09-09T10:38:54;4.88;;;3.40;;
44838;SDS011;30576;42.098;24.876;2022-09-09T10:41:31;7.22;;;4.10;;
44838;SDS011;30576;42.098;24.876;2022-09-09T10:44:15;7.18;;;3.60;;
44838;SDS011;30576;42.098;24.876;2022-09-09T10:49:26;7.07;;;3.95;;
44838;SDS011;30576;42.098;24.876;2022-09-09T10:52:01;8.43;;;3.75;;
44838;SDS011;30576;42.098;24.876;2022-09-09T10:55:01;6.88;;;3.10;;
44838;SDS011;30576;42.098;24.876;2022-09-09T10:57:42;5.25;;;3.33;;
44838;SDS011;30576;42.098;24.876;2022-09-09T11:00:27;4.15;;;3.28;;
44838;SDS011;30576;42.098;24.876;2022-09-09T11:03:15;5.18;;;3.65;;
44838;SDS011;30576;42.098;24.876;2022-09-09T11:06:28;7.10;;;3.40;;
44838;SDS011;30576;42.098;24.876;2022-09-09T11:08:42;4.30;;;3.20;;
44838;SDS011;30576;42.098;24.876;2022-09-09T11:11:12;5.90;;;3.60;;
44838;SDS011;30576;42.098;24.876;2022-09-09T11:19:17;6.22;;;4.65;;
44838;SDS011;30576;42.098;24.876;2022-09-09T11:21:47;8.55;;;4.57;;
44838;SDS011;30576;42.098;24.876;2022-09-09T11:26:58;6.03;;;3.90;;
44838;SDS011;30576;42.098;24.876;2022-09-09T11:29:42;5.22;;;3.17;;
44838;SDS011;30576;42.098;24.876;2022-09-09T11:42:44;4.55;;;2.88;;
44838;SDS011;30576;42.098;24.876;2022-09-09T11:45:11;10.02;;;4.20;;
44838;SDS011;30576;42.098;24.876;2022-09-09T11:47:51;4.30;;;3.03;;
44838;SDS011;30576;42.098;24.876;2022-09-09T11:52:47;5.45;;;3.50;;
44838;SDS011;30576;42.098;24.876;2022-09-09T11:58:03;7.93;;;4.60;;
44838;SDS011;30576;42.098;24.876;2022-09-09T12:00:37;8.82;;;4.35;;
44838;SDS011;30576;42.098;24.876;2022-09-09T12:03:31;5.55;;;4.13;;
44838;SDS011;30576;42.098;24.876;2022-09-09T12:09:05;4.78;;;3.40;;
44838;SDS011;30576;42.098;24.876;2022-09-09T12:11:36;4.88;;;3.20;;
44838;SDS011;30576;42.098;24.876;2022-09-09T12:14:02;11.52;;;8.50;;
44838;SDS011;30576;42.098;24.876;2022-09-09T12:16:32;9.55;;;7.95;;
44838;SDS011;30576;42.098;24.876;2022-09-09T12:19:06;7.30;;;5.10;;
44838;SDS011;30576;42.098;24.876;2022-09-09T12:24:33;7.10;;;3.40;;
44838;SDS011;30576;42.098;24.876;2022-09-09T12:27:20;5.40;;;2.83;;
44838;SDS011;30576;42.098;24.876;2022-09-09T12:29:59;5.72;;;3.65;;
44838;SDS011;30576;42.098;24.876;2022-09-09T12:32:34;4.95;;;3.00;;
44838;SDS011;30576;42.098;24.876;2022-09-09T12:35:43;5.90;;;3.33;;
44838;SDS011;30576;42.098;24.876;2022-09-09T12:37:59;5.47;;;4.07;;
44838;SDS011;30576;42.098;24.876;2022-09-09T12:40:31;5.00;;;3.17;;
44838;SDS011;30576;42.098;24.876;2022-09-09T12:43:00;7.80;;;3.35;;
44838;SDS011;30576;42.098;24.876;2022-09-09T12:45:27;4.65;;;3.60;;
44838;SDS011;30576;42.098;24.876;2022-09-09T12:50:30;5.55;;;4.47;;
44838;SDS011;30576;42.098;24.876;2022-09-09T12:52:58;6.47;;;3.95;;
44838;SDS011;30576;42.098;24.876;2022-09-09T12:55:35;7.07;;;5.47;;
44838;SDS011;30576;42.098;24.876;2022-09-09T12:58:03;6.03;;;4.38;;
44838;SDS011;30576;42.098;24.876;2022-09-09T13:00:31;9.77;;;4.85;;
44838;SDS011;30576;42.098;24.876;2022-09-09T13:02:59;9.15;;;3.97;;
44838;SDS011;30576;42.098;24.876;2022-09-09T13:05:36;5.78;;;4.13;;
44838;SDS011;30576;42.098;24.876;2022-09-09T13:08:04;6.00;;;5.13;;
44838;SDS011;30576;42.098;24.876;2022-09-09T13:10:33;7.32;;;4.53;;
44838;SDS011;30576;42.098;24.876;2022-09-09T13:13:19;5.30;;;3.97;;
44838;SDS011;30576;42.098;24.876;2022-09-09T13:15:51;9.27;;;4.40;;
44838;SDS011;30576;42.098;24.876;2022-09-09T13:18:21;7.13;;;4.88;;
44838;SDS011;30576;42.098;24.876;2022-09-09T13:20:49;11.18;;;5.38;;
44838;SDS011;30576;42.098;24.876;2022-09-09T13:23:15;7.90;;;3.65;;
44838;SDS011;30576;42.098;24.876;2022-09-09T13:25:58;9.60;;;4.18;;
44838;SDS011;30576;42.098;24.876;2022-09-09T13:28:26;5.55;;;3.67;;
44838;SDS011;30576;42.098;24.876;2022-09-09T13:30:58;6.30;;;3.72;;
44838;SDS011;30576;42.098;24.876;2022-09-09T13:33:29;10.77;;;5.15;;
44838;SDS011;30576;42.098;24.876;2022-09-09T13:38:27;5.45;;;3.75;;
44838;SDS011;30576;42.098;24.876;2022-09-09T13:41:01;8.20;;;3.85;;
44838;SDS011;30576;42.098;24.876;2022-09-09T13:43:53;5.88;;;4.13;;
44838;SDS011;30576;42.098;24.876;2022-09-09T13:51:37;7.22;;;4.13;;
44838;SDS011;30576;42.098;24.876;2022-09-09T13:54:04;6.15;;;4.28;;
44838;SDS011;30576;42.098;24.876;2022-09-09T13:56:34;6.78;;;3.55;;
44838;SDS011;30576;42.098;24.876;2022-09-09T13:59:00;5.38;;;3.78;;
44838;SDS011;30576;42.098;24.876;2022-09-09T14:01:27;6.68;;;4.22;;
44838;SDS011;30576;42.098;24.876;2022-09-09T14:03:53;5.78;;;3.75;;
44838;SDS011;30576;42.098;24.876;2022-09-09T14:06:19;8.02;;;4.70;;
44838;SDS011;30576;42.098;24.876;2022-09-09T14:08:46;6.57;;;4.43;;
44838;SDS011;30576;42.098;24.876;2022-09-09T14:11:13;7.35;;;4.50;;
44838;SDS011;30576;42.098;24.876;2022-09-09T14:13:38;5.97;;;3.83;;
44838;SDS011;30576;42.098;24.876;2022-09-09T14:16:04;7.07;;;4.22;;
44838;SDS011;30576;42.098;24.876;2022-09-09T14:18:29;7.30;;;4.60;;
44838;SDS011;30576;42.098;24.876;2022-09-09T14:20:55;6.00;;;4.18;;
44838;SDS011;30576;42.098;24.876;2022-09-09T14:23:22;7.72;;;4.15;;
44838;SDS011;30576;42.098;24.876;2022-09-09T14:25:47;6.72;;;4.25;;
44838;SDS011;30576;42.098;24.876;2022-09-09T14:28:14;7.38;;;4.72;;
44838;SDS011;30576;42.098;24.876;2022-09-09T14:30:40;5.82;;;4.03;;
44838;SDS011;30576;42.098;24.876;2022-09-09T14:33:07;6.72;;;4.22;;
44838;SDS011;30576;42.098;24.876;2022-09-09T14:35:34;6.93;;;4.72;;
44838;SDS011;30576;42.098;24.876;2022-09-09T14:38:01;7.00;;;4.05;;
44838;SDS011;30576;42.098;24.876;2022-09-09T14:40:27;6.60;;;4.45;;
44838;SDS011;30576;42.098;24.876;2022-09-09T14:42:53;8.35;;;4.38;;
44838;SDS011;30576;42.098;24.876;2022-09-09T14:45:19;6.35;;;4.47;;
44838;SDS011;30576;42.098;24.876;2022-09-09T14:47:46;6.10;;;4.32;;
44838;SDS011;30576;42.098;24.876;2022-09-09T14:50:12;5.95;;;4.43;;
44838;SDS011;30576;42.098;24.876;2022-09-09T14:52:38;7.15;;;5.13;;
44838;SDS011;30576;42.098;24.876;2022-09-09T14:55:04;8.07;;;4.72;;
44838;SDS011;30576;42.098;24.876;2022-09-09T14:57:30;10.40;;;5.47;;
44838;SDS011;30576;42.098;24.876;2022-09-09T14:59:56;6.95;;;5.22;;
44838;SDS011;30576;42.098;24.876;2022-09-09T15:02:21;6.72;;;5.55;;
44838;SDS011;30576;42.098;24.876;2022-09-09T15:04:47;7.78;;;4.88;;
44838;SDS011;30576;42.098;24.876;2022-09-09T15:07:15;9.30;;;4.97;;
44838;SDS011;30576;42.098;24.876;2022-09-09T15:09:41;8.60;;;4.95;;
44838;SDS011;30576;42.098;24.876;2022-09-09T15:12:07;6.72;;;4.47;;
44838;SDS011;30576;42.098;24.876;2022-09-09T15:14:33;8.07;;;5.75;;
44838;SDS011;30576;42.098;24.876;2022-09-09T15:17:00;12.55;;;5.78;;
44838;SDS011;30576;42.098;24.876;2022-09-09T15:19:26;9.75;;;5.18;;
44838;SDS011;30576;42.098;24.876;2022-09-09T15:21:51;10.95;;;5.15;;
44838;SDS011;30576;42.098;24.876;2022-09-09T15:24:17;21.35;;;8.88;;
44838;SDS011;30576;42.098;24.876;2022-09-09T15:26:42;13.95;;;7.38;;
44838;SDS011;30576;42.098;24.876;2022-09-09T15:29:08;15.90;;;7.00;;
44838;SDS011;30576;42.098;24.876;2022-09-09T15:31:34;10.00;;;5.28;;
44838;SDS011;30576;42.098;24.876;2022-09-09T15:34:00;12.23;;;6.63;;
44838;SDS011;30576;42.098;24.876;2022-09-09T15:36:31;15.43;;;6.15;;
44838;SDS011;30576;42.098;24.876;2022-09-09T15:38:58;12.40;;;5.70;;
44838;SDS011;30576;42.098;24.876;2022-09-09T15:41:25;9.25;;;6.00;;
44838;SDS011;30576;42.098;24.876;2022-09-09T15:43:52;7.45;;;5.47;;
44838;SDS011;30576;42.098;24.876;2022-09-09T15:46:26;10.75;;;5.70;;
44838;SDS011;30576;42.098;24.876;2022-09-09T15:51:46;8.00;;;5.40;;
44838;SDS011;30576;42.098;24.876;2022-09-09T15:54:17;8.30;;;5.32;;
44838;SDS011;30576;42.098;24.876;2022-09-09T15:56:44;9.15;;;6.07;;
44838;SDS011;30576;42.098;24.876;2022-09-09T15:59:15;7.85;;;6.07;;
44838;SDS011;30576;42.098;24.876;2022-09-09T16:01:41;7.05;;;5.63;;
44838;SDS011;30576;42.098;24.876;2022-09-09T16:04:08;7.75;;;5.80;;
44838;SDS011;30576;42.098;24.876;2022-09-09T16:06:34;9.38;;;5.65;;
44838;SDS011;30576;42.098;24.876;2022-09-09T16:09:01;10.32;;;5.75;;
44838;SDS011;30576;42.098;24.876;2022-09-09T16:11:30;18.27;;;8.05;;
44838;SDS011;30576;42.098;24.876;2022-09-09T16:13:58;15.15;;;6.30;;
44838;SDS011;30576;42.098;24.876;2022-09-09T16:16:25;26.83;;;9.80;;
44838;SDS011;30576;42.098;24.876;2022-09-09T16:18:54;17.92;;;9.43;;
44838;SDS011;30576;42.098;24.876;2022-09-09T16:21:25;13.60;;;8.05;;
44838;SDS011;30576;42.098;24.876;2022-09-09T16:23:54;16.90;;;9.23;;
44838;SDS011;30576;42.098;24.876;2022-09-09T16:26:21;30.45;;;13.75;;
44838;SDS011;30576;42.098;24.876;2022-09-09T16:28:48;9.90;;;6.65;;
44838;SDS011;30576;42.098;24.876;2022-09-09T16:31:18;19.05;;;8.55;;
44838;SDS011;30576;42.098;24.876;2022-09-09T16:33:45;16.08;;;8.15;;
44838;SDS011;30576;42.098;24.876;2022-09-09T16:36:12;12.15;;;6.70;;
44838;SDS011;30576;42.098;24.876;2022-09-09T16:38:40;9.25;;;6.13;;
44838;SDS011;30576;42.098;24.876;2022-09-09T16:41:06;7.28;;;4.97;;
44838;SDS011;30576;42.098;24.876;2022-09-09T16:43:33;7.57;;;5.40;;
44838;SDS011;30576;42.098;24.876;2022-09-09T16:46:01;8.00;;;5.47;;
44838;SDS011;30576;42.098;24.876;2022-09-09T16:48:30;11.27;;;5.53;;
44838;SDS011;30576;42.098;24.876;2022-09-09T16:51:04;10.35;;;5.95;;
44838;SDS011;30576;42.098;24.876;2022-09-09T16:53:32;7.40;;;5.18;;
44838;SDS011;30576;42.098;24.876;2022-09-09T16:56:04;6.40;;;4.93;;
44838;SDS011;30576;42.098;24.876;2022-09-09T16:58:31;9.68;;;4.55;;
44838;SDS011;30576;42.098;24.876;2022-09-09T17:01:00;6.10;;;4.25;;